createdAt,value
2018-02-25T00:00:43.411Z,10.68
2018-02-25T00:03:10.874Z,15.25
2018-02-25T00:05:38.381Z,11.15
2018-02-25T00:08:05.124Z,14.98
2018-02-25T00:10:31.823Z,10.90
2018-02-25T00:12:59.250Z,9.60
2018-02-25T00:15:25.950Z,13.45
2018-02-25T00:17:53.210Z,12.95
2018-02-25T00:20:19.894Z,11.57
2018-02-25T00:22:46.590Z,10.23
2018-02-25T00:25:13.252Z,10.52
2018-02-25T00:27:39.938Z,14.18
2018-02-25T00:30:06.607Z,12.30
2018-02-25T00:32:34.104Z,16.60
2018-02-25T00:35:01.274Z,12.18
2018-02-25T00:37:27.988Z,11.35
2018-02-25T00:39:54.745Z,11.82
2018-02-25T00:42:21.491Z,13.57
2018-02-25T00:44:48.163Z,12.43
2018-02-25T00:47:14.846Z,12.70
2018-02-25T00:49:41.537Z,15.57
2018-02-25T00:52:08.261Z,13.85
2018-02-25T00:54:35.034Z,12.20
2018-02-25T00:57:01.768Z,14.57
2018-02-25T00:59:28.426Z,10.00
2018-02-25T01:01:55.098Z,12.85
2018-02-25T01:04:22.519Z,11.57
2018-02-25T01:06:49.223Z,14.65
2018-02-25T01:09:15.911Z,13.65
2018-02-25T01:11:42.632Z,12.70
2018-02-25T01:14:09.309Z,12.23
2018-02-25T01:16:35.991Z,14.00
2018-02-25T01:19:02.692Z,13.77
2018-02-25T01:21:29.405Z,14.15
2018-02-25T01:23:56.086Z,14.10
2018-02-25T01:26:22.759Z,18.60
2018-02-25T01:28:49.426Z,12.90
2018-02-25T01:31:16.120Z,12.43
2018-02-25T01:33:43.538Z,15.25
2018-02-25T01:36:10.255Z,15.07
2018-02-25T01:41:10.388Z,15.82
2018-02-25T01:43:37.094Z,17.90
2018-02-25T01:46:03.759Z,16.25
2018-02-25T01:48:31.193Z,14.43
2018-02-25T01:51:03.859Z,14.07
2018-02-25T01:53:30.549Z,15.77
2018-02-25T01:55:57.989Z,15.43
2018-02-25T01:58:24.675Z,18.35
2018-02-25T02:00:51.364Z,12.63
2018-02-25T02:03:18.048Z,13.23
2018-02-25T02:05:44.742Z,15.43
2018-02-25T02:08:11.387Z,19.00
2018-02-25T02:10:38.078Z,11.38
2018-02-25T02:13:04.876Z,11.80
2018-02-25T02:15:31.583Z,17.33
2018-02-25T02:17:58.286Z,17.85
2018-02-25T02:20:25.843Z,19.15
2018-02-25T02:22:52.579Z,20.10
2018-02-25T02:25:19.288Z,20.35
2018-02-25T02:27:45.987Z,21.02
2018-02-25T02:30:13.417Z,17.30
2018-02-25T02:32:40.114Z,12.35
2018-02-25T02:35:06.788Z,22.27
2018-02-25T02:37:33.528Z,14.65
2018-02-25T02:40:00.254Z,14.18
2018-02-25T02:42:27.762Z,15.27
2018-02-25T02:44:54.577Z,15.45
2018-02-25T02:47:28.422Z,13.68
2018-02-25T02:49:55.112Z,18.23
2018-02-25T02:52:21.803Z,15.13
2018-02-25T02:54:48.483Z,19.95
2018-02-25T02:57:15.150Z,13.57
2018-02-25T02:59:41.906Z,20.73
2018-02-25T03:02:08.618Z,21.77
2018-02-25T03:04:35.267Z,14.93
2018-02-25T03:07:01.975Z,15.02
2018-02-25T03:09:28.693Z,16.95
2018-02-25T03:11:55.419Z,14.73
2018-02-25T03:14:22.107Z,16.25
2018-02-25T03:16:49.614Z,13.70
2018-02-25T03:19:16.307Z,20.90
2018-02-25T03:21:43.644Z,12.20
2018-02-25T03:24:10.317Z,17.60
2018-02-25T03:26:37.740Z,20.10
2018-02-25T03:29:04.622Z,12.98
2018-02-25T03:31:32.246Z,18.40
2018-02-25T03:33:59.015Z,17.80
2018-02-25T03:36:25.714Z,15.18
2018-02-25T03:38:52.436Z,15.55
2018-02-25T03:41:19.887Z,18.02
2018-02-25T03:43:47.318Z,15.80
2018-02-25T03:46:14.003Z,21.35
2018-02-25T03:48:40.703Z,18.23
2018-02-25T03:51:07.359Z,17.48
2018-02-25T03:53:34.028Z,16.23
2018-02-25T03:56:01.455Z,17.55
2018-02-25T03:58:28.156Z,14.48
2018-02-25T04:00:54.828Z,17.37
2018-02-25T04:03:21.510Z,18.50
2018-02-25T04:05:48.934Z,21.00
2018-02-25T04:08:15.593Z,14.98
2018-02-25T04:10:42.293Z,14.68
2018-02-25T04:13:08.997Z,20.40
2018-02-25T04:15:36.433Z,15.02
2018-02-25T04:18:03.186Z,17.12
2018-02-25T04:20:29.882Z,18.50
2018-02-25T04:22:56.553Z,18.10
2018-02-25T04:25:23.230Z,26.65
2018-02-25T04:27:50.678Z,17.73
2018-02-25T04:30:17.364Z,20.20
2018-02-25T04:32:44.044Z,27.45
2018-02-25T04:35:10.727Z,19.75
2018-02-25T04:37:38.157Z,16.60
2018-02-25T04:40:04.870Z,20.85
2018-02-25T04:42:31.582Z,20.50
2018-02-25T04:44:58.990Z,24.85
2018-02-25T04:47:25.679Z,22.95
2018-02-25T04:49:52.372Z,23.35
2018-02-25T04:52:19.027Z,21.95
2018-02-25T04:54:45.703Z,21.12
2018-02-25T04:57:13.111Z,23.95
2018-02-25T04:59:39.790Z,27.77
2018-02-25T05:02:07.246Z,18.40
2018-02-25T05:04:33.933Z,17.75
2018-02-25T05:07:00.596Z,21.20
2018-02-25T05:09:27.259Z,21.87
2018-02-25T05:11:53.967Z,18.60
2018-02-25T05:14:20.652Z,20.45
2018-02-25T05:16:47.351Z,22.00
2018-02-25T05:19:14.038Z,17.15
2018-02-25T05:21:40.709Z,19.60
2018-02-25T05:24:08.129Z,18.35
2018-02-25T05:26:34.798Z,20.33
2018-02-25T05:29:01.511Z,19.92
2018-02-25T05:31:28.236Z,22.40
2018-02-25T05:33:54.912Z,28.85
2018-02-25T05:36:21.575Z,20.60
2018-02-25T05:38:49.012Z,22.48
2018-02-25T05:41:15.702Z,18.37
2018-02-25T05:43:42.378Z,20.08
2018-02-25T05:46:09.074Z,30.90
2018-02-25T05:48:36.459Z,25.73
2018-02-25T05:51:03.165Z,26.48
2018-02-25T05:53:30.572Z,25.58
2018-02-25T05:55:57.241Z,22.65
2018-02-25T05:58:23.919Z,27.10
2018-02-25T06:00:51.398Z,21.65
2018-02-25T06:03:18.062Z,22.75
2018-02-25T06:05:44.722Z,28.00
2018-02-25T06:08:11.386Z,25.45
2018-02-25T06:10:38.126Z,29.87
2018-02-25T06:13:04.829Z,28.77
2018-02-25T06:15:32.255Z,22.48
2018-02-25T06:17:59.658Z,20.95
2018-02-25T06:20:26.363Z,18.02
2018-02-25T06:22:53.828Z,19.75
2018-02-25T06:25:21.269Z,20.85
2018-02-25T06:27:48.696Z,21.92
2018-02-25T06:30:15.385Z,18.12
2018-02-25T06:32:42.830Z,20.83
2018-02-25T06:35:09.555Z,22.27
2018-02-25T06:37:36.263Z,21.35
2018-02-25T06:40:03.027Z,18.20
2018-02-25T06:42:29.698Z,17.42
2018-02-25T06:44:56.386Z,19.47
2018-02-25T06:47:23.081Z,18.50
2018-02-25T06:49:49.809Z,18.50
2018-02-25T06:52:16.462Z,22.17
2018-02-25T06:54:43.128Z,20.40
2018-02-25T06:57:10.564Z,20.67
2018-02-25T06:59:37.285Z,18.57
2018-02-25T07:02:03.971Z,15.70
2018-02-25T07:04:30.678Z,18.63
2018-02-25T07:06:57.380Z,18.90
2018-02-25T07:09:24.043Z,21.00
2018-02-25T07:11:50.771Z,16.80
2018-02-25T07:14:17.422Z,17.80
2018-02-25T07:16:44.109Z,17.43
2018-02-25T07:19:11.593Z,16.60
2018-02-25T07:21:39.012Z,19.67
2018-02-25T07:24:05.713Z,16.20
2018-02-25T07:26:33.171Z,14.90
2018-02-25T07:29:00.614Z,14.33
2018-02-25T07:31:27.363Z,18.03
2018-02-25T07:33:54.876Z,14.83
2018-02-25T07:36:21.626Z,14.37
2018-02-25T07:38:48.289Z,15.07
2018-02-25T07:41:14.991Z,16.10
2018-02-25T07:43:41.655Z,14.67
2018-02-25T07:46:08.312Z,16.27
2018-02-25T07:48:34.980Z,14.90
2018-02-25T07:51:01.690Z,15.13
2018-02-25T07:53:28.371Z,16.63
2018-02-25T07:55:55.823Z,13.20
2018-02-25T07:58:23.321Z,17.87
2018-02-25T08:00:50.024Z,15.13
2018-02-25T08:03:16.714Z,14.47
2018-02-25T08:05:43.448Z,13.60
2018-02-25T08:08:10.125Z,14.43
2018-02-25T08:10:36.819Z,13.33
2018-02-25T08:13:04.260Z,15.07
2018-02-25T08:15:30.982Z,13.30
2018-02-25T08:17:57.647Z,15.47
2018-02-25T08:20:24.343Z,14.30
2018-02-25T08:22:51.055Z,14.07
2018-02-25T08:25:18.442Z,13.87
2018-02-25T08:27:45.130Z,17.73
2018-02-25T08:30:11.842Z,13.73
2018-02-25T08:32:38.517Z,14.53
2018-02-25T08:35:05.212Z,14.23
2018-02-25T08:37:31.897Z,15.67
2018-02-25T08:39:58.619Z,14.47
2018-02-25T08:42:25.300Z,16.07
2018-02-25T08:44:52.719Z,13.27
2018-02-25T08:47:19.416Z,13.90
2018-02-25T08:49:46.830Z,17.33
2018-02-25T08:52:13.539Z,16.37
2018-02-25T08:54:40.226Z,16.60
2018-02-25T08:57:06.893Z,14.23
2018-02-25T08:59:33.567Z,15.27
2018-02-25T09:02:00.282Z,14.50
2018-02-25T09:04:27.796Z,13.70
2018-02-25T09:06:55.098Z,15.67
2018-02-25T09:09:21.776Z,14.37
2018-02-25T09:11:48.531Z,16.23
2018-02-25T09:14:15.260Z,13.97
2018-02-25T09:16:41.943Z,14.83
2018-02-25T09:19:08.660Z,16.27
2018-02-25T09:21:35.325Z,14.07
2018-02-25T09:24:02.003Z,13.87
2018-02-25T09:26:29.471Z,12.70
2018-02-25T09:28:56.878Z,15.33
2018-02-25T09:31:23.616Z,15.90
2018-02-25T09:33:50.467Z,14.60
2018-02-25T09:36:17.184Z,16.93
2018-02-25T09:38:43.888Z,13.83
2018-02-25T09:41:10.649Z,15.90
2018-02-25T09:43:39.040Z,13.57
2018-02-25T09:46:07.360Z,12.43
2018-02-25T09:48:35.763Z,13.93
2018-02-25T09:51:04.113Z,13.67
2018-02-25T09:53:32.438Z,14.50
2018-02-25T09:56:00.801Z,15.10
2018-02-25T09:58:29.123Z,13.83
2018-02-25T10:00:57.442Z,14.47
2018-02-25T10:03:25.778Z,15.93
2018-02-25T10:05:54.114Z,14.80
2018-02-25T10:08:22.450Z,13.57
2018-02-25T10:10:50.832Z,13.77
2018-02-25T10:13:19.165Z,15.30
2018-02-25T10:15:47.508Z,15.37
2018-02-25T10:18:15.822Z,19.97
2018-02-25T10:20:44.159Z,14.37
2018-02-25T10:23:12.571Z,12.97
2018-02-25T10:25:40.891Z,12.80
2018-02-25T10:28:09.202Z,15.57
2018-02-25T10:30:37.570Z,15.50
2018-02-25T10:33:05.894Z,14.07
2018-02-25T10:35:34.222Z,13.57
2018-02-25T10:38:02.543Z,15.90
2018-02-25T10:40:30.853Z,14.07
2018-02-25T10:42:59.183Z,14.60
2018-02-25T10:45:27.550Z,15.30
2018-02-25T10:47:55.895Z,15.63
2018-02-25T10:50:24.261Z,14.77
2018-02-25T10:52:52.588Z,13.77
2018-02-25T10:55:20.915Z,13.83
2018-02-25T10:57:49.279Z,15.33
2018-02-25T11:00:23.712Z,13.27
2018-02-25T11:02:52.076Z,14.97
2018-02-25T11:05:20.408Z,16.67
2018-02-25T11:07:48.756Z,16.40
2018-02-25T11:10:17.160Z,13.80
2018-02-25T11:12:45.454Z,13.90
2018-02-25T11:15:13.902Z,14.33
2018-02-25T11:17:42.886Z,14.83
2018-02-25T11:20:11.277Z,14.77
2018-02-25T11:22:40.960Z,14.57
2018-02-25T11:25:09.423Z,13.40
2018-02-25T11:27:37.806Z,14.83
2018-02-25T11:30:07.110Z,16.17
2018-02-25T11:32:35.447Z,14.93
2018-02-25T11:35:03.880Z,15.87
2018-02-25T11:37:33.008Z,14.40
2018-02-25T11:40:01.420Z,14.77
2018-02-25T11:42:29.798Z,15.30
2018-02-25T11:44:58.142Z,15.90
2018-02-25T11:47:26.497Z,15.37
2018-02-25T11:49:55.409Z,15.53
2018-02-25T11:52:23.753Z,15.07
2018-02-25T11:54:52.095Z,15.07
2018-02-25T11:57:20.437Z,14.73
2018-02-25T11:59:48.804Z,14.17
2018-02-25T12:02:17.291Z,14.93
2018-02-25T12:04:46.520Z,15.87
2018-02-25T12:07:14.879Z,18.80
2018-02-25T12:09:43.214Z,16.80
2018-02-25T12:12:11.575Z,17.00
2018-02-25T12:14:40.042Z,14.57
2018-02-25T12:17:08.362Z,16.27
2018-02-25T12:19:36.781Z,14.13
2018-02-25T12:22:05.131Z,15.07
2018-02-25T12:24:33.562Z,14.57
2018-02-25T12:27:01.917Z,14.50
2018-02-25T12:29:30.247Z,15.90
2018-02-25T12:31:58.591Z,15.90
2018-02-25T12:34:26.939Z,16.97
2018-02-25T12:36:56.092Z,17.53
2018-02-25T12:39:24.450Z,15.83
2018-02-25T12:41:53.699Z,19.40
2018-02-25T12:44:22.089Z,16.07
2018-02-25T12:46:50.574Z,17.55
2018-02-25T12:49:18.948Z,16.60
2018-02-25T12:51:47.291Z,16.43
2018-02-25T12:54:15.620Z,20.57
2018-02-25T12:56:44.005Z,16.90
2018-02-25T12:59:12.325Z,20.30
2018-02-25T13:01:40.699Z,15.35
2018-02-25T13:04:09.087Z,19.80
2018-02-25T13:06:37.459Z,18.90
2018-02-25T13:09:05.846Z,18.77
2018-02-25T13:11:35.184Z,19.23
2018-02-25T13:14:03.711Z,16.45
2018-02-25T13:16:32.084Z,22.95
2018-02-25T13:19:00.439Z,22.98
2018-02-25T13:21:29.407Z,17.85
2018-02-25T13:23:57.833Z,21.05
2018-02-25T13:26:26.157Z,19.65
2018-02-25T13:28:54.565Z,19.50
2018-02-25T13:31:23.039Z,23.10
2018-02-25T13:33:51.348Z,19.00
2018-02-25T13:36:19.794Z,18.95
2018-02-25T13:38:48.101Z,24.42
2018-02-25T13:41:16.477Z,22.83
2018-02-25T13:43:44.843Z,19.50
2018-02-25T13:46:13.226Z,26.92
2018-02-25T13:48:41.590Z,15.90
2018-02-25T13:51:09.912Z,20.55
2018-02-25T13:53:38.320Z,18.75
2018-02-25T13:56:06.766Z,21.48
2018-02-25T13:58:35.109Z,17.15
2018-02-25T14:01:03.514Z,18.45
2018-02-25T14:03:31.872Z,20.02
2018-02-25T14:06:00.323Z,20.00
2018-02-25T14:08:28.712Z,17.12
2018-02-25T14:10:57.067Z,20.23
2018-02-25T14:13:25.387Z,18.45
2018-02-25T14:15:53.721Z,20.27
2018-02-25T14:18:22.062Z,20.65
2018-02-25T14:20:50.543Z,17.92
2018-02-25T14:23:18.882Z,19.73
2018-02-25T14:25:47.230Z,19.35
2018-02-25T14:28:15.667Z,17.73
2018-02-25T14:30:44.007Z,18.58
2018-02-25T14:33:12.464Z,17.33
2018-02-25T14:35:40.800Z,17.90
2018-02-25T14:38:09.365Z,21.48
2018-02-25T14:40:37.713Z,18.55
2018-02-25T14:43:06.805Z,22.00
2018-02-25T14:45:35.410Z,18.48
2018-02-25T14:48:03.738Z,20.62
2018-02-25T14:50:32.110Z,19.70
2018-02-25T14:53:00.458Z,19.27
2018-02-25T14:55:28.778Z,20.15
2018-02-25T14:57:57.180Z,22.42
2018-02-25T15:00:25.558Z,20.33
2018-02-25T15:02:54.673Z,26.23
2018-02-25T15:05:23.014Z,23.92
2018-02-25T15:07:51.342Z,20.85
2018-02-25T15:10:19.689Z,23.25
2018-02-25T15:12:48.028Z,23.45
2018-02-25T15:15:16.403Z,24.27
2018-02-25T15:17:44.877Z,17.40
2018-02-25T15:20:13.254Z,18.08
2018-02-25T15:22:41.623Z,23.38
2018-02-25T15:25:10.074Z,21.98
2018-02-25T15:27:38.421Z,23.33
2018-02-25T15:30:06.922Z,24.48
2018-02-25T15:32:35.269Z,27.50
2018-02-25T15:35:03.641Z,21.70
2018-02-25T15:37:31.996Z,25.62
2018-02-25T15:40:00.314Z,27.60
2018-02-25T15:42:28.764Z,25.37
2018-02-25T15:44:57.192Z,27.85
2018-02-25T15:47:25.559Z,25.12
2018-02-25T15:49:53.941Z,24.08
2018-02-25T15:52:22.326Z,20.27
2018-02-25T15:54:50.694Z,21.37
2018-02-25T15:57:19.204Z,26.15
2018-02-25T15:59:47.601Z,42.15
2018-02-25T16:02:15.962Z,22.02
2018-02-25T16:04:45.332Z,25.75
2018-02-25T16:07:13.706Z,24.83
2018-02-25T16:09:42.813Z,24.23
2018-02-25T16:12:11.129Z,25.12
2018-02-25T16:14:39.479Z,30.30
2018-02-25T16:17:07.853Z,28.02
2018-02-25T16:19:36.404Z,28.15
2018-02-25T16:22:05.594Z,24.40
2018-02-25T16:24:33.953Z,23.58
2018-02-25T16:27:02.307Z,31.15
2018-02-25T16:29:30.656Z,22.35
2018-02-25T16:31:59.051Z,23.98
2018-02-25T16:34:27.433Z,22.15
2018-02-25T16:36:55.807Z,28.10
2018-02-25T16:39:24.183Z,25.42
2018-02-25T16:41:52.536Z,28.40
2018-02-25T16:44:20.917Z,24.48
2018-02-25T16:46:49.361Z,20.83
2018-02-25T16:49:17.717Z,24.85
2018-02-25T16:51:46.101Z,27.08
2018-02-25T16:54:14.470Z,28.90
2018-02-25T16:56:42.836Z,24.87
2018-02-25T16:59:11.199Z,23.00
2018-02-25T17:01:39.556Z,24.70
2018-02-25T17:04:07.939Z,22.13
2018-02-25T17:06:36.297Z,21.83
2018-02-25T17:09:04.688Z,25.35
2018-02-25T17:11:33.116Z,26.17
2018-02-25T17:14:01.475Z,29.73
2018-02-25T17:16:29.836Z,23.40
2018-02-25T17:18:58.314Z,24.75
2018-02-25T17:21:26.705Z,26.05
2018-02-25T17:23:55.090Z,24.55
2018-02-25T17:26:23.414Z,30.88
2018-02-25T17:28:51.724Z,29.45
2018-02-25T17:31:20.178Z,24.67
2018-02-25T17:33:48.569Z,23.60
2018-02-25T17:36:16.959Z,32.92
2018-02-25T17:38:45.355Z,31.67
2018-02-25T17:41:14.255Z,23.20
2018-02-25T17:43:42.593Z,31.83
2018-02-25T17:46:10.930Z,34.00
2018-02-25T17:48:39.267Z,37.65
2018-02-25T17:51:07.647Z,34.78
2018-02-25T17:53:36.030Z,24.60
2018-02-25T17:56:04.390Z,27.15
2018-02-25T17:58:32.831Z,30.58
2018-02-25T18:01:01.155Z,30.88
2018-02-25T18:03:29.547Z,27.52
2018-02-25T18:05:57.890Z,27.48
2018-02-25T18:08:26.276Z,30.37
2018-02-25T18:10:54.650Z,28.60
2018-02-25T18:13:23.014Z,34.55
2018-02-25T18:15:51.390Z,32.72
2018-02-25T18:18:19.786Z,33.70
2018-02-25T18:20:48.271Z,33.95
2018-02-25T18:23:16.731Z,29.87
2018-02-25T18:25:45.117Z,29.95
2018-02-25T18:28:13.509Z,36.03
2018-02-25T18:30:42.040Z,32.80
2018-02-25T18:33:10.467Z,39.35
2018-02-25T18:35:38.941Z,35.65
2018-02-25T18:38:07.340Z,37.65
2018-02-25T18:40:35.727Z,28.58
2018-02-25T18:43:04.115Z,39.55
2018-02-25T18:45:32.448Z,31.80
2018-02-25T18:48:00.830Z,28.98
2018-02-25T18:50:29.265Z,36.25
2018-02-25T18:52:57.638Z,34.30
2018-02-25T18:55:26.168Z,34.53
2018-02-25T18:57:54.505Z,34.22
2018-02-25T19:00:22.985Z,42.80
2018-02-25T19:02:51.341Z,40.20
2018-02-25T19:05:20.056Z,42.47
2018-02-25T19:07:48.437Z,35.97
2018-02-25T19:10:17.432Z,38.55
2018-02-25T19:12:45.864Z,43.03
2018-02-25T19:15:14.211Z,31.80
2018-02-25T19:17:42.586Z,30.02
2018-02-25T19:20:10.972Z,32.47
2018-02-25T19:22:39.313Z,37.47
2018-02-25T19:25:07.724Z,36.53
2018-02-25T19:27:36.139Z,30.00
2018-02-25T19:30:04.492Z,37.55
2018-02-25T19:32:32.910Z,40.97
2018-02-25T19:35:01.281Z,51.85
2018-02-25T19:37:35.676Z,35.63
2018-02-25T19:40:04.013Z,35.10
2018-02-25T19:42:32.422Z,30.05
2018-02-25T19:45:00.789Z,39.22
2018-02-25T19:47:29.148Z,31.37
2018-02-25T19:49:57.529Z,36.78
2018-02-25T19:52:25.857Z,37.30
2018-02-25T19:54:54.213Z,37.88
2018-02-25T19:57:22.623Z,28.58
2018-02-25T19:59:51.034Z,34.85
2018-02-25T20:02:19.359Z,34.00
2018-02-25T20:04:47.729Z,36.90
2018-02-25T20:07:16.057Z,37.78
2018-02-25T20:09:44.372Z,38.75
2018-02-25T20:12:12.739Z,33.60
2018-02-25T20:14:41.120Z,32.90
2018-02-25T20:17:09.530Z,42.80
2018-02-25T20:19:37.884Z,47.25
2018-02-25T20:22:06.231Z,48.92
2018-02-25T20:24:34.594Z,40.40
2018-02-25T20:27:03.001Z,48.28
2018-02-25T20:29:31.367Z,44.70
2018-02-25T20:31:59.758Z,45.80
2018-02-25T20:34:28.151Z,42.88
2018-02-25T20:36:56.524Z,44.28
2018-02-25T20:39:24.894Z,51.50
2018-02-25T20:41:53.281Z,46.72
2018-02-25T20:44:21.592Z,50.55
2018-02-25T20:46:49.977Z,37.65
2018-02-25T20:49:18.444Z,51.40
2018-02-25T20:51:46.809Z,59.97
2018-02-25T20:54:15.271Z,51.95
2018-02-25T20:56:43.633Z,47.03
2018-02-25T20:59:12.011Z,49.40
2018-02-25T21:01:40.423Z,50.42
2018-02-25T21:04:08.921Z,87.97
2018-02-25T21:06:37.339Z,108.37
2018-02-25T21:09:05.684Z,94.97
2018-02-25T21:11:34.161Z,93.60
2018-02-25T21:14:02.497Z,105.65
2018-02-25T21:16:30.855Z,89.80
2018-02-25T21:18:59.210Z,80.28
2018-02-25T21:21:27.578Z,82.12
2018-02-25T21:23:55.999Z,58.65
2018-02-25T21:26:24.340Z,64.75
2018-02-25T21:28:52.729Z,54.42
2018-02-25T21:31:21.099Z,52.35
2018-02-25T21:33:49.538Z,49.83
2018-02-25T21:36:17.879Z,48.35
2018-02-25T21:38:46.351Z,51.45
2018-02-25T21:41:14.737Z,51.35
2018-02-25T21:43:43.100Z,57.67
2018-02-25T21:46:11.512Z,55.70
2018-02-25T21:48:39.925Z,48.10
2018-02-25T21:51:08.254Z,53.13
2018-02-25T21:53:40.547Z,50.08
2018-02-25T21:56:14.882Z,46.15
2018-02-25T21:58:49.408Z,55.35
2018-02-25T22:04:20.881Z,52.67
2018-02-25T22:06:49.233Z,52.53
2018-02-25T22:09:17.583Z,51.00
2018-02-25T22:11:45.990Z,55.95
2018-02-25T22:14:14.333Z,56.53
2018-02-25T22:16:42.724Z,50.28
2018-02-25T22:19:12.191Z,47.50
2018-02-25T22:21:40.529Z,41.28
2018-02-25T22:24:08.910Z,50.03
2018-02-25T22:26:37.346Z,47.42
2018-02-25T22:29:05.703Z,49.17
2018-02-25T22:31:34.089Z,42.33
2018-02-25T22:34:02.445Z,46.47
2018-02-25T22:36:30.758Z,50.60
2018-02-25T22:38:59.105Z,45.28
2018-02-25T22:41:27.564Z,49.78
2018-02-25T22:43:55.901Z,41.53
2018-02-25T22:46:24.284Z,50.85
2018-02-25T22:48:53.372Z,48.03
2018-02-25T22:51:21.752Z,50.72
2018-02-25T22:53:50.151Z,46.25
2018-02-25T22:56:18.548Z,53.87
2018-02-25T22:58:47.034Z,45.92
2018-02-25T23:01:15.369Z,57.58
2018-02-25T23:03:43.796Z,48.80
2018-02-25T23:06:12.153Z,43.30
2018-02-25T23:08:40.484Z,52.92
2018-02-25T23:11:08.846Z,46.03
2018-02-25T23:13:37.224Z,52.55
2018-02-25T23:16:05.558Z,63.60
2018-02-25T23:18:34.015Z,41.92
2018-02-25T23:21:02.362Z,53.75
2018-02-25T23:23:30.707Z,54.95
2018-02-25T23:25:59.148Z,65.93
2018-02-25T23:28:27.479Z,66.00
2018-02-25T23:30:55.841Z,65.22
2018-02-25T23:33:24.301Z,49.33
2018-02-25T23:35:52.638Z,58.72
2018-02-25T23:38:20.969Z,46.37
2018-02-25T23:40:49.321Z,46.30
2018-02-25T23:43:17.732Z,46.88
2018-02-25T23:45:46.044Z,42.92
2018-02-25T23:48:14.364Z,49.60
2018-02-25T23:50:42.731Z,53.15
2018-02-25T23:53:11.039Z,42.70
2018-02-25T23:55:40.513Z,47.83
2018-02-25T23:58:08.882Z,53.33
